Time;durP1;ratioP1;P1;durP2;ratioP2;P2;SDS_P1;SDS_P2;PMS_P1;PMS_P2;Temp;Humidity;BMP_temperature;BMP_pressure;BME280_temperature;BME280_humidity;BME280_pressure;Samples;Min_cycle;Max_cycle;Signal;HPM_P1;HPM_P2
2021/06/27 00:00:52;;;;;;;1.75;1.00;;;;;;;;;;7031783;28;20064;-93
2021/06/27 00:04:13;;;;;;;1.65;1.00;;;;;;;;;;6991776;28;20052;-94
2021/06/27 00:07:34;;;;;;;0.80;0.80;;;;;;;;;;7031344;28;20074;-94
2021/06/27 00:10:58;;;;;;;0.88;0.73;;;;;;;;;;7034673;28;20040;-89
2021/06/27 00:14:18;;;;;;;1.48;1.00;;;;;;;;;;7025281;28;20308;-93
2021/06/27 00:17:40;;;;;;;1.00;0.90;;;;;;;;;;6986555;28;20048;-85
2021/06/27 00:21:04;;;;;;;4.70;0.98;;;;;;;;;;7020587;28;20052;-87
2021/06/27 00:24:24;;;;;;;5.07;1.40;;;;;;;;;;6993347;28;20055;-88
2021/06/27 00:27:49;;;;;;;3.38;1.10;;;;;;;;;;7011297;28;20090;-89
2021/06/27 00:31:10;;;;;;;1.25;0.98;;;;;;;;;;7006070;28;20044;-89
2021/06/27 00:34:31;;;;;;;4.63;1.00;;;;;;;;;;7011585;28;20040;-90
2021/06/27 00:37:51;;;;;;;7.43;1.30;;;;;;;;;;7026472;28;20093;-89
2021/06/27 00:41:12;;;;;;;2.70;1.10;;;;;;;;;;7008691;28;20412;-89
2021/06/27 00:44:33;;;;;;;2.28;1.02;;;;;;;;;;7032814;28;20493;-90
2021/06/27 00:47:54;;;;;;;1.35;1.05;;;;;;;;;;7032184;28;20054;-90
2021/06/27 00:51:16;;;;;;;1.88;1.00;;;;;;;;;;6990766;28;20139;-90
2021/06/27 00:54:36;;;;;;;1.13;1.00;;;;;;;;;;7013330;28;20138;-89
2021/06/27 00:57:57;;;;;;;1.65;1.00;;;;;;;;;;7005944;28;20044;-90
2021/06/27 01:01:17;;;;;;;1.65;0.95;;;;;;;;;;7018777;28;20052;-89
2021/06/27 01:04:38;;;;;;;2.17;0.80;;;;;;;;;;7032445;28;20139;-90
2021/06/27 01:07:59;;;;;;;1.02;0.82;;;;;;;;;;7019585;28;20135;-86
2021/06/27 01:11:19;;;;;;;3.22;1.30;;;;;;;;;;7003974;28;20052;-89
2021/06/27 01:14:40;;;;;;;1.65;1.02;;;;;;;;;;7031632;28;20044;-88
2021/06/27 01:18:00;;;;;;;0.80;0.80;;;;;;;;;;7031722;28;20550;-87
2021/06/27 01:21:21;;;;;;;1.38;0.90;;;;;;;;;;7028983;28;20044;-87
2021/06/27 01:24:41;;;;;;;0.82;0.82;;;;;;;;;;7013904;28;20050;-87
2021/06/27 01:28:04;;;;;;;1.30;1.05;;;;;;;;;;7087977;22;20147;-90
2021/06/27 01:31:27;;;;;;;1.83;1.00;;;;;;;;;;6976113;28;20183;-91
2021/06/27 01:34:47;;;;;;;1.40;1.00;;;;;;;;;;6982004;28;20037;-91
2021/06/27 01:38:08;;;;;;;2.13;0.90;;;;;;;;;;6981915;28;20081;-93
2021/06/27 01:41:29;;;;;;;1.17;1.08;;;;;;;;;;6950219;28;20041;-94
2021/06/27 01:44:49;;;;;;;1.17;1.00;;;;;;;;;;6967885;28;20059;-92
2021/06/27 01:48:10;;;;;;;1.67;0.93;;;;;;;;;;6969895;28;20041;-94
2021/06/27 01:51:31;;;;;;;1.20;0.77;;;;;;;;;;6992318;28;20379;-88
2021/06/27 01:54:51;;;;;;;1.00;0.70;;;;;;;;;;6969521;28;20399;-90
2021/06/27 01:58:12;;;;;;;2.85;0.77;;;;;;;;;;6980389;28;20037;-90
2021/06/27 02:01:36;;;;;;;2.40;0.75;;;;;;;;;;6967569;28;20045;-92
2021/06/27 02:04:56;;;;;;;8.85;1.20;;;;;;;;;;6967584;28;20052;-91
2021/06/27 02:08:17;;;;;;;1.73;0.93;;;;;;;;;;6969395;28;20079;-90
2021/06/27 02:11:37;;;;;;;1.83;0.82;;;;;;;;;;6967400;28;20072;-91
2021/06/27 02:14:58;;;;;;;1.77;0.77;;;;;;;;;;6967643;28;20144;-89
2021/06/27 02:18:25;;;;;;;0.80;0.80;;;;;;;;;;6969466;28;20072;-90
2021/06/27 02:21:45;;;;;;;1.08;0.68;;;;;;;;;;6968078;28;20049;-92
2021/06/27 02:25:06;;;;;;;1.05;0.90;;;;;;;;;;6997603;28;20501;-92
2021/06/27 02:28:27;;;;;;;1.13;0.90;;;;;;;;;;6984932;28;20036;-92
2021/06/27 02:31:51;;;;;;;1.30;0.98;;;;;;;;;;6983025;28;20078;-91
2021/06/27 02:35:12;;;;;;;1.80;0.98;;;;;;;;;;6975014;28;20061;-92
2021/06/27 02:38:33;;;;;;;1.35;0.82;;;;;;;;;;6974552;28;20508;-92
2021/06/27 02:41:54;;;;;;;1.73;0.95;;;;;;;;;;6989465;28;20073;-90
2021/06/27 02:45:15;;;;;;;1.80;1.25;;;;;;;;;;6971591;28;20045;-91
2021/06/27 02:48:36;;;;;;;1.70;1.17;;;;;;;;;;6974512;28;20436;-93
2021/06/27 02:51:56;;;;;;;1.42;1.05;;;;;;;;;;6982692;28;20079;-93
2021/06/27 02:55:17;;;;;;;1.00;0.90;;;;;;;;;;6952066;28;20049;-95
2021/06/27 02:58:42;;;;;;;2.97;0.88;;;;;;;;;;6971814;28;20053;-94
2021/06/27 03:02:03;;;;;;;0.95;0.95;;;;;;;;;;6979241;28;20167;-93
2021/06/27 03:05:24;;;;;;;1.25;1.02;;;;;;;;;;6971893;28;20052;-95
2021/06/27 03:08:44;;;;;;;0.70;0.70;;;;;;;;;;6974313;28;20112;-95
2021/06/27 03:12:05;;;;;;;2.42;1.10;;;;;;;;;;6980939;28;20052;-92
2021/06/27 03:15:26;;;;;;;1.83;0.90;;;;;;;;;;6970729;28;20129;-93
2021/06/27 03:18:46;;;;;;;1.15;0.80;;;;;;;;;;6971468;28;20043;-93
2021/06/27 03:22:06;;;;;;;1.13;0.82;;;;;;;;;;6984664;28;20448;-93
2021/06/27 03:25:28;;;;;;;1.10;0.90;;;;;;;;;;6985048;28;20057;-92
2021/06/27 03:28:52;;;;;;;1.63;0.80;;;;;;;;;;6970793;28;20049;-91
2021/06/27 03:32:12;;;;;;;4.85;1.15;;;;;;;;;;6980035;28;20143;-91
2021/06/27 03:35:33;;;;;;;1.20;0.90;;;;;;;;;;6969582;28;20144;-92
2021/06/27 03:39:06;;;;;;;0.80;0.80;;;;;;;;;;6970864;28;20178;-93
2021/06/27 03:42:28;;;;;;;1.27;0.80;;;;;;;;;;6986846;28;20048;-92
2021/06/27 03:45:48;;;;;;;1.27;0.80;;;;;;;;;;6976292;28;20159;-89
2021/06/27 03:49:08;;;;;;;1.20;0.90;;;;;;;;;;6970098;28;20083;-91
2021/06/27 03:52:29;;;;;;;1.27;0.80;;;;;;;;;;6984785;28;20490;-90
2021/06/27 03:55:49;;;;;;;0.80;0.80;;;;;;;;;;6971318;28;20041;-91
2021/06/27 03:59:10;;;;;;;2.45;0.80;;;;;;;;;;6982270;28;20048;-92
2021/06/27 04:02:30;;;;;;;0.80;0.68;;;;;;;;;;6982152;28;20049;-92
2021/06/27 04:05:51;;;;;;;1.52;0.90;;;;;;;;;;6986783;28;20375;-93
2021/06/27 04:09:11;;;;;;;1.00;0.70;;;;;;;;;;6970201;28;20041;-95
2021/06/27 04:12:32;;;;;;;0.93;0.90;;;;;;;;;;6979604;28;20110;-93
2021/06/27 04:15:53;;;;;;;0.75;0.70;;;;;;;;;;6974651;28;20094;-94
2021/06/27 04:19:13;;;;;;;1.83;0.98;;;;;;;;;;6984045;28;20049;-95
2021/06/27 04:22:34;;;;;;;2.83;0.80;;;;;;;;;;6978417;28;20051;-92
2021/06/27 04:25:54;;;;;;;1.17;0.95;;;;;;;;;;6988666;28;20045;-92
2021/06/27 04:29:16;;;;;;;1.10;1.00;;;;;;;;;;6951259;28;20133;-93
2021/06/27 04:32:37;;;;;;;0.98;0.80;;;;;;;;;;6986304;28;20040;-92
2021/06/27 04:35:58;;;;;;;2.22;1.60;;;;;;;;;;6984984;28;20083;-91
2021/06/27 04:39:18;;;;;;;1.63;1.45;;;;;;;;;;6988912;28;20060;-90
2021/06/27 04:42:39;;;;;;;1.40;1.30;;;;;;;;;;6971015;28;20032;-92
2021/06/27 04:45:59;;;;;;;4.05;3.75;;;;;;;;;;6973516;28;20112;-92
2021/06/27 04:49:20;;;;;;;3.97;3.67;;;;;;;;;;6951395;28;20136;-91
2021/06/27 04:52:40;;;;;;;3.20;3.00;;;;;;;;;;6972179;28;20049;-92
2021/06/27 04:56:01;;;;;;;4.82;1.48;;;;;;;;;;6968956;28;20059;-90
2021/06/27 04:59:21;;;;;;;2.25;1.10;;;;;;;;;;6968937;28;20049;-94
2021/06/27 05:02:41;;;;;;;1.30;1.20;;;;;;;;;;6972345;28;20449;-91
2021/06/27 05:06:03;;;;;;;2.00;1.10;;;;;;;;;;6969571;28;20075;-91
2021/06/27 05:09:23;;;;;;;2.08;1.20;;;;;;;;;;6968905;28;20053;-90
2021/06/27 05:12:44;;;;;;;3.85;0.93;;;;;;;;;;6971986;28;20049;-90
2021/06/27 05:16:04;;;;;;;1.00;0.88;;;;;;;;;;6970803;28;20053;-93
2021/06/27 05:19:25;;;;;;;4.63;1.20;;;;;;;;;;6968965;28;20399;-93
2021/06/27 05:22:46;;;;;;;5.00;1.10;;;;;;;;;;6972426;28;20080;-92
2021/06/27 05:26:06;;;;;;;5.18;1.00;;;;;;;;;;6967902;28;20388;-91
2021/06/27 05:29:27;;;;;;;0.82;0.80;;;;;;;;;;6968121;28;20045;-92
2021/06/27 05:32:47;;;;;;;2.85;0.80;;;;;;;;;;6971818;28;20056;-92
2021/06/27 05:36:08;;;;;;;1.35;1.25;;;;;;;;;;6976915;28;20140;-93
2021/06/27 05:39:28;;;;;;;3.60;1.00;;;;;;;;;;6968315;28;20052;-95
2021/06/27 05:42:49;;;;;;;0.98;0.80;;;;;;;;;;6969439;28;20067;-93
2021/06/27 05:46:09;;;;;;;1.90;1.00;;;;;;;;;;6978284;28;20053;-92
2021/06/27 05:49:29;;;;;;;4.90;1.02;;;;;;;;;;6967968;28;20045;-94
2021/06/27 05:52:50;;;;;;;2.55;1.02;;;;;;;;;;6968059;28;20112;-93
2021/06/27 05:56:11;;;;;;;4.20;0.90;;;;;;;;;;6977021;28;20056;-92
2021/06/27 05:59:31;;;;;;;1.20;1.10;;;;;;;;;;6967129;28;20049;-92
2021/06/27 06:02:52;;;;;;;2.10;0.95;;;;;;;;;;6983710;28;20083;-91
2021/06/27 06:06:12;;;;;;;3.70;0.85;;;;;;;;;;6967461;28;20060;-90
2021/06/27 06:09:33;;;;;;;2.03;1.02;;;;;;;;;;6967248;28;20049;-91
2021/06/27 06:12:53;;;;;;;1.23;0.90;;;;;;;;;;6970738;28;20053;-91
2021/06/27 06:16:14;;;;;;;1.70;1.08;;;;;;;;;;6967318;28;20048;-91
2021/06/27 06:19:34;;;;;;;1.13;0.60;;;;;;;;;;6967767;28;20134;-91
2021/06/27 06:22:55;;;;;;;1.25;0.70;;;;;;;;;;6971478;28;20094;-89
2021/06/27 06:26:15;;;;;;;4.03;0.93;;;;;;;;;;6981211;28;20083;-92
2021/06/27 06:29:36;;;;;;;2.95;0.80;;;;;;;;;;6981472;28;20510;-92
2021/06/27 06:32:56;;;;;;;3.15;0.93;;;;;;;;;;6980998;28;20036;-93
2021/06/27 06:36:17;;;;;;;1.42;0.85;;;;;;;;;;6967440;28;20045;-93
2021/06/27 06:39:37;;;;;;;1.90;0.90;;;;;;;;;;6966850;28;20095;-94
2021/06/27 06:42:58;;;;;;;1.60;0.82;;;;;;;;;;6972129;28;20479;-95
2021/06/27 06:46:19;;;;;;;3.60;0.82;;;;;;;;;;6967334;28;20052;-94
2021/06/27 06:49:39;;;;;;;1.85;1.00;;;;;;;;;;6971032;28;20084;-92
2021/06/27 06:53:00;;;;;;;0.88;0.80;;;;;;;;;;6982702;28;20041;-94
2021/06/27 06:56:20;;;;;;;0.73;0.73;;;;;;;;;;6967507;28;20059;-95
2021/06/27 06:59:41;;;;;;;0.77;0.77;;;;;;;;;;6966816;28;20072;-96
2021/06/27 07:03:02;;;;;;;5.15;0.88;;;;;;;;;;6956773;28;20382;-94
2021/06/27 07:06:23;;;;;;;0.82;0.80;;;;;;;;;;6966879;28;20053;-95
2021/06/27 07:09:43;;;;;;;1.40;1.00;;;;;;;;;;6951206;28;20095;-86
2021/06/27 07:13:03;;;;;;;2.08;0.60;;;;;;;;;;6977306;28;20052;-89
2021/06/27 07:16:24;;;;;;;1.05;0.80;;;;;;;;;;6984426;28;20490;-87
2021/06/27 07:19:44;;;;;;;3.08;0.93;;;;;;;;;;6969845;28;20386;-85
2021/06/27 07:23:06;;;;;;;0.70;0.70;;;;;;;;;;6979371;28;20048;-90
2021/06/27 07:26:26;;;;;;;1.83;0.60;;;;;;;;;;6989773;28;20081;-90
2021/06/27 07:29:48;;;;;;;1.55;0.80;;;;;;;;;;6982871;28;20071;-95
2021/06/27 07:33:09;;;;;;;1.33;0.90;;;;;;;;;;6978573;28;20084;-94
2021/06/27 07:36:29;;;;;;;0.65;0.65;;;;;;;;;;6978150;28;20862;-94
2021/06/27 07:39:50;;;;;;;1.08;0.85;;;;;;;;;;6994394;28;20052;-91
2021/06/27 07:43:10;;;;;;;5.32;1.05;;;;;;;;;;6981134;28;20486;-89
2021/06/27 07:46:31;;;;;;;2.25;0.80;;;;;;;;;;6982349;28;20144;-90
2021/06/27 07:49:51;;;;;;;1.33;0.80;;;;;;;;;;6970125;28;20052;-89
2021/06/27 07:53:12;;;;;;;0.75;0.75;;;;;;;;;;6979632;28;20049;-90
2021/06/27 07:56:32;;;;;;;2.38;0.90;;;;;;;;;;6970206;28;20037;-90
2021/06/27 07:59:53;;;;;;;0.70;0.70;;;;;;;;;;6980458;28;20115;-90
2021/06/27 08:03:13;;;;;;;1.80;0.68;;;;;;;;;;6980452;28;20421;-90
2021/06/27 08:06:33;;;;;;;0.70;0.70;;;;;;;;;;6969692;28;20056;-90
2021/06/27 08:09:54;;;;;;;0.73;0.70;;;;;;;;;;6975089;28;20072;-96
2021/06/27 08:13:14;;;;;;;4.57;0.90;;;;;;;;;;6999740;28;20075;-96
2021/06/27 08:16:36;;;;;;;1.40;0.70;;;;;;;;;;6973005;28;20055;-96
2021/06/27 08:19:56;;;;;;;0.75;0.70;;;;;;;;;;6974257;28;20067;-96
2021/06/27 08:23:17;;;;;;;1.55;0.70;;;;;;;;;;6985257;28;20044;-96
2021/06/27 08:26:37;;;;;;;0.88;0.70;;;;;;;;;;6997014;28;20108;-95
2021/06/27 08:29:58;;;;;;;0.63;0.63;;;;;;;;;;6990251;28;20056;-96
2021/06/27 08:37:09;;;;;;;1.20;0.70;;;;;;;;;;7725495;23;20045;-96
2021/06/27 08:40:30;;;;;;;0.70;0.70;;;;;;;;;;6919626;28;20060;-95
2021/06/27 08:43:50;;;;;;;0.55;0.55;;;;;;;;;;6899467;28;20042;-96
2021/06/27 08:47:15;;;;;;;1.35;0.80;;;;;;;;;;6874263;28;20459;-96
2021/06/27 08:50:35;;;;;;;0.80;0.80;;;;;;;;;;6903328;28;20070;-96
2021/06/27 08:53:56;;;;;;;0.60;0.60;;;;;;;;;;6891899;28;20145;-96
2021/06/27 08:57:19;;;;;;;1.05;0.70;;;;;;;;;;6891334;28;20077;-96
2021/06/27 09:00:40;;;;;;;2.63;0.85;;;;;;;;;;6915758;28;20046;-96
2021/06/27 09:04:01;;;;;;;2.22;0.80;;;;;;;;;;6890004;28;20057;-90
2021/06/27 09:07:32;;;;;;;1.48;1.15;;;;;;;;;;6886335;28;20093;-93
2021/06/27 09:10:54;;;;;;;16.45;15.38;;;;;;;;;;6873971;28;20976;-95
2021/06/27 09:14:47;;;;;;;16.67;15.30;;;;;;;;;;6892801;28;20191;-91
2021/06/27 09:18:13;;;;;;;16.20;15.20;;;;;;;;;;6853416;28;20054;-91
2021/06/27 09:21:33;;;;;;;17.40;16.30;;;;;;;;;;6890292;28;20184;-96
2021/06/27 09:25:11;;;;;;;17.95;16.75;;;;;;;;;;6928184;28;20763;-96
2021/06/27 09:28:46;;;;;;;16.83;15.75;;;;;;;;;;6922482;28;20053;-96
2021/06/27 09:32:17;;;;;;;16.67;15.68;;;;;;;;;;6888965;28;20068;-93
2021/06/27 09:36:02;;;;;;;17.85;16.65;;;;;;;;;;6898971;28;20061;-91
2021/06/27 09:39:23;;;;;;;17.52;16.27;;;;;;;;;;6885358;28;20485;-91
2021/06/27 09:42:44;;;;;;;4.40;0.82;;;;;;;;;;6889270;28;20145;-94
2021/06/27 09:46:14;;;;;;;2.15;0.90;;;;;;;;;;6900746;28;20400;-94
2021/06/27 09:49:34;;;;;;;2.85;1.00;;;;;;;;;;6886542;28;20054;-93
2021/06/27 09:52:55;;;;;;;5.45;0.90;;;;;;;;;;6888102;28;20057;-95
2021/06/27 09:56:16;;;;;;;2.97;0.80;;;;;;;;;;6895928;28;20057;-94
2021/06/27 09:59:41;;;;;;;0.88;0.85;;;;;;;;;;6893345;28;20519;-95
2021/06/27 10:03:02;;;;;;;0.77;0.77;;;;;;;;;;6891116;28;20462;-94
2021/06/27 10:06:25;;;;;;;3.28;0.80;;;;;;;;;;6885515;28;20078;-95
2021/06/27 10:09:46;;;;;;;1.58;0.70;;;;;;;;;;6883922;28;20054;-94
2021/06/27 10:13:07;;;;;;;2.28;1.00;;;;;;;;;;6888190;28;20038;-95
2021/06/27 10:16:29;;;;;;;1.67;0.68;;;;;;;;;;6891951;28;20519;-93
2021/06/27 10:19:51;;;;;;;2.05;0.88;;;;;;;;;;6884661;28;20052;-94
2021/06/27 10:23:11;;;;;;;0.98;0.70;;;;;;;;;;6883834;28;20089;-95
2021/06/27 10:26:32;;;;;;;1.83;0.80;;;;;;;;;;6903024;28;20050;-93
2021/06/27 10:29:53;;;;;;;4.93;1.00;;;;;;;;;;6885601;28;20412;-94
2021/06/27 10:33:14;;;;;;;1.85;0.75;;;;;;;;;;6885442;28;20046;-94
2021/06/27 10:36:37;;;;;;;0.88;0.85;;;;;;;;;;6880798;28;20431;-93
2021/06/27 10:40:13;;;;;;;2.95;1.05;;;;;;;;;;6890820;28;20046;-95
2021/06/27 10:44:02;;;;;;;1.80;0.80;;;;;;;;;;6869932;28;20201;-91
2021/06/27 10:47:31;;;;;;;1.27;0.90;;;;;;;;;;6890478;28;20476;-96
2021/06/27 10:50:53;;;;;;;1.95;0.80;;;;;;;;;;6889747;28;20077;-93
2021/06/27 10:54:17;;;;;;;1.85;0.80;;;;;;;;;;6897244;28;20073;-89
2021/06/27 10:58:01;;;;;;;1.42;1.02;;;;;;;;;;6889949;28;20046;-94
2021/06/27 11:01:22;;;;;;;3.20;0.80;;;;;;;;;;6889891;28;20472;-92
2021/06/27 11:04:43;;;;;;;1.75;0.90;;;;;;;;;;6880772;28;20523;-92
2021/06/27 11:08:04;;;;;;;0.70;0.70;;;;;;;;;;6889630;28;20385;-94
2021/06/27 11:11:25;;;;;;;4.13;0.93;;;;;;;;;;6889359;28;20078;-96
2021/06/27 11:15:15;;;;;;;1.63;0.85;;;;;;;;;;6899847;28;20045;-91
2021/06/27 11:18:44;;;;;;;1.27;0.70;;;;;;;;;;6887408;28;20385;-91
2021/06/27 11:22:21;;;;;;;1.67;0.80;;;;;;;;;;6889453;28;20527;-90
2021/06/27 11:25:46;;;;;;;3.63;1.05;;;;;;;;;;6905206;28;20061;-90
2021/06/27 11:29:29;;;;;;;3.80;0.85;;;;;;;;;;6898739;28;20058;-90
2021/06/27 11:32:50;;;;;;;1.48;1.00;;;;;;;;;;6874711;28;20113;-91
2021/06/27 11:36:26;;;;;;;3.03;0.80;;;;;;;;;;6907519;28;20447;-89
2021/06/27 11:39:54;;;;;;;1.77;0.75;;;;;;;;;;6906697;28;20074;-90
2021/06/27 11:43:15;;;;;;;1.23;0.90;;;;;;;;;;6888483;28;20073;-90
2021/06/27 11:46:42;;;;;;;0.80;0.75;;;;;;;;;;6887926;28;20404;-91
2021/06/27 11:50:18;;;;;;;0.73;0.68;;;;;;;;;;6908198;28;20497;-89
2021/06/27 11:53:38;;;;;;;2.08;0.77;;;;;;;;;;6887681;28;20042;-89
2021/06/27 11:57:05;;;;;;;3.05;0.90;;;;;;;;;;6870421;28;20050;-92
2021/06/27 12:00:52;;;;;;;0.93;0.80;;;;;;;;;;6892832;28;20058;-90
2021/06/27 12:04:12;;;;;;;0.70;0.70;;;;;;;;;;6884311;28;20551;-92
2021/06/27 12:07:41;;;;;;;2.05;0.80;;;;;;;;;;6893811;28;20124;-93
2021/06/27 12:11:02;;;;;;;2.95;0.93;;;;;;;;;;6890274;28;20058;-94
2021/06/27 12:14:39;;;;;;;2.15;0.80;;;;;;;;;;6887794;28;20093;-93
2021/06/27 12:18:19;;;;;;;0.95;0.68;;;;;;;;;;6893533;28;20089;-92
2021/06/27 12:21:39;;;;;;;1.73;1.00;;;;;;;;;;6903006;28;20045;-93
2021/06/27 12:25:01;;;;;;;1.23;0.88;;;;;;;;;;6910900;28;20108;-94
2021/06/27 12:28:47;;;;;;;0.70;0.70;;;;;;;;;;6899873;28;20049;-93
2021/06/27 12:32:10;;;;;;;1.00;0.80;;;;;;;;;;6889926;28;20519;-93
2021/06/27 12:35:32;;;;;;;0.88;0.63;;;;;;;;;;6915274;28;20045;-93
2021/06/27 12:38:56;;;;;;;0.85;0.80;;;;;;;;;;6898226;28;20053;-93
2021/06/27 12:42:16;;;;;;;1.10;0.80;;;;;;;;;;6870185;28;20404;-92
2021/06/27 12:45:37;;;;;;;1.65;0.70;;;;;;;;;;6888238;28;20518;-91
2021/06/27 12:49:00;;;;;;;0.75;0.70;;;;;;;;;;6893497;28;20054;-91
2021/06/27 12:52:22;;;;;;;1.30;0.80;;;;;;;;;;6888466;28;20055;-90
2021/06/27 12:55:53;;;;;;;0.80;0.80;;;;;;;;;;6885176;28;20050;-90
2021/06/27 12:59:25;;;;;;;0.70;0.70;;;;;;;;;;6898796;28;20148;-90
2021/06/27 13:02:49;;;;;;;0.68;0.68;;;;;;;;;;6886557;28;20565;-90
2021/06/27 13:06:09;;;;;;;3.17;0.70;;;;;;;;;;6870313;28;20415;-91
2021/06/27 13:09:30;;;;;;;2.90;0.90;;;;;;;;;;6890553;28;20488;-91
2021/06/27 13:13:05;;;;;;;12.57;1.38;;;;;;;;;;6884871;28;20047;-90
2021/06/27 13:16:26;;;;;;;10.82;1.20;;;;;;;;;;6886276;28;20050;-88
2021/06/27 13:20:12;;;;;;;4.32;1.35;;;;;;;;;;6888993;28;20079;-90
2021/06/27 13:23:33;;;;;;;1.00;0.80;;;;;;;;;;6884486;28;20064;-90
2021/06/27 13:26:55;;;;;;;2.05;0.98;;;;;;;;;;6917737;23;20054;-91
2021/06/27 13:30:15;;;;;;;0.65;0.65;;;;;;;;;;6901607;28;20042;-90
2021/06/27 13:33:36;;;;;;;1.85;0.90;;;;;;;;;;6887654;28;20124;-90
2021/06/27 13:36:56;;;;;;;1.10;0.80;;;;;;;;;;6897297;28;20057;-90
2021/06/27 13:40:17;;;;;;;3.15;0.70;;;;;;;;;;6902420;28;20070;-90
2021/06/27 13:43:38;;;;;;;0.82;0.63;;;;;;;;;;6885975;28;20057;-89
2021/06/27 13:46:58;;;;;;;1.42;0.80;;;;;;;;;;6887119;28;20493;-89
2021/06/27 13:50:23;;;;;;;2.88;0.77;;;;;;;;;;6885756;28;20046;-90
2021/06/27 13:53:44;;;;;;;1.52;0.90;;;;;;;;;;6894508;28;20080;-90
2021/06/27 13:57:04;;;;;;;3.65;0.90;;;;;;;;;;6912626;28;20085;-90
2021/06/27 14:00:26;;;;;;;0.70;0.70;;;;;;;;;;6904461;28;20046;-90
2021/06/27 14:03:47;;;;;;;1.58;0.90;;;;;;;;;;6885447;28;20042;-90
2021/06/27 14:07:08;;;;;;;1.35;0.75;;;;;;;;;;6904308;28;20132;-90
2021/06/27 14:10:28;;;;;;;1.80;0.77;;;;;;;;;;6898646;28;20045;-90
2021/06/27 14:13:49;;;;;;;0.70;0.70;;;;;;;;;;6891698;28;20129;-90
2021/06/27 14:17:10;;;;;;;0.82;0.80;;;;;;;;;;6884536;28;20081;-90
2021/06/27 14:20:30;;;;;;;2.20;0.80;;;;;;;;;;6910577;28;20054;-91
2021/06/27 14:23:51;;;;;;;1.10;0.80;;;;;;;;;;6891174;28;20484;-90
2021/06/27 14:27:11;;;;;;;1.38;0.70;;;;;;;;;;6902610;28;20551;-91
2021/06/27 14:30:32;;;;;;;0.80;0.80;;;;;;;;;;6902159;28;20057;-91
2021/06/27 14:33:53;;;;;;;0.70;0.70;;;;;;;;;;6903295;28;20060;-90
2021/06/27 14:37:14;;;;;;;1.17;0.80;;;;;;;;;;6903445;28;20141;-90
2021/06/27 14:40:34;;;;;;;1.00;0.70;;;;;;;;;;6903097;28;20050;-90
2021/06/27 14:43:55;;;;;;;2.33;0.80;;;;;;;;;;6888982;28;20070;-90
2021/06/27 14:47:16;;;;;;;1.58;0.90;;;;;;;;;;6889688;28;20133;-91
2021/06/27 14:50:37;;;;;;;0.80;0.68;;;;;;;;;;6889597;28;20050;-91
2021/06/27 14:53:57;;;;;;;0.70;0.70;;;;;;;;;;6889453;28;20046;-90
2021/06/27 14:57:18;;;;;;;0.80;0.80;;;;;;;;;;6889218;28;20042;-91
2021/06/27 15:00:38;;;;;;;1.08;0.90;;;;;;;;;;6892864;28;20049;-90
2021/06/27 15:03:59;;;;;;;0.90;0.80;;;;;;;;;;6906571;28;20077;-91
2021/06/27 15:07:20;;;;;;;2.85;0.70;;;;;;;;;;6889284;28;20466;-90
2021/06/27 15:10:40;;;;;;;0.70;0.70;;;;;;;;;;6892087;28;20507;-88
2021/06/27 15:14:01;;;;;;;0.98;0.70;;;;;;;;;;6889199;28;20392;-90
2021/06/27 15:17:21;;;;;;;0.85;0.70;;;;;;;;;;6888839;28;20050;-89
2021/06/27 15:20:42;;;;;;;0.95;0.73;;;;;;;;;;6893770;28;20061;-88
2021/06/27 15:24:03;;;;;;;1.10;0.75;;;;;;;;;;6891469;28;20194;-89
2021/06/27 15:27:23;;;;;;;1.70;0.80;;;;;;;;;;6899498;28;20046;-89
2021/06/27 15:30:44;;;;;;;1.20;0.68;;;;;;;;;;6897929;28;20050;-90
2021/06/27 15:34:05;;;;;;;0.75;0.60;;;;;;;;;;6888549;28;20420;-90
2021/06/27 15:37:25;;;;;;;0.88;0.88;;;;;;;;;;6888335;28;20046;-90
2021/06/27 15:40:47;;;;;;;1.23;0.80;;;;;;;;;;6899929;28;20058;-90
2021/06/27 15:44:08;;;;;;;0.93;0.80;;;;;;;;;;6888648;28;20049;-89
2021/06/27 15:47:28;;;;;;;1.88;1.05;;;;;;;;;;6888099;28;20047;-90
2021/06/27 15:50:49;;;;;;;1.00;0.90;;;;;;;;;;6901936;28;20137;-91
2021/06/27 15:54:09;;;;;;;0.73;0.70;;;;;;;;;;6888035;28;20141;-91
2021/06/27 15:57:30;;;;;;;0.70;0.70;;;;;;;;;;6888306;28;21010;-90
2021/06/27 16:00:51;;;;;;;0.70;0.70;;;;;;;;;;6914057;28;20092;-90
2021/06/27 16:04:11;;;;;;;0.75;0.75;;;;;;;;;;6890000;28;20504;-90
2021/06/27 16:07:31;;;;;;;0.70;0.70;;;;;;;;;;6887823;28;20058;-88
2021/06/27 16:10:52;;;;;;;1.02;0.88;;;;;;;;;;6890450;28;20046;-90
2021/06/27 16:14:12;;;;;;;0.75;0.75;;;;;;;;;;6887560;28;20057;-91
2021/06/27 16:17:33;;;;;;;1.08;0.90;;;;;;;;;;6887468;28;20054;-90
2021/06/27 16:20:54;;;;;;;0.60;0.60;;;;;;;;;;6891740;28;20115;-90
2021/06/27 16:24:16;;;;;;;0.80;0.80;;;;;;;;;;6897950;28;20100;-90
2021/06/27 16:27:38;;;;;;;1.10;0.80;;;;;;;;;;6900202;28;20066;-90
2021/06/27 16:30:59;;;;;;;1.05;0.90;;;;;;;;;;6910938;28;20049;-90
2021/06/27 16:34:19;;;;;;;0.70;0.70;;;;;;;;;;6897994;28;20058;-89
2021/06/27 16:37:40;;;;;;;1.88;0.80;;;;;;;;;;6870039;28;20125;-90
2021/06/27 16:41:00;;;;;;;0.77;0.70;;;;;;;;;;6886571;28;20057;-89
2021/06/27 16:44:21;;;;;;;0.80;0.80;;;;;;;;;;6899325;28;20488;-89
2021/06/27 16:47:42;;;;;;;1.08;0.80;;;;;;;;;;6886913;28;20177;-89
2021/06/27 16:51:04;;;;;;;0.80;0.80;;;;;;;;;;6887138;28;20039;-89
2021/06/27 16:54:24;;;;;;;0.80;0.80;;;;;;;;;;6900911;28;20096;-89
2021/06/27 16:57:45;;;;;;;0.82;0.80;;;;;;;;;;6900080;28;20055;-89
2021/06/27 17:01:05;;;;;;;0.75;0.75;;;;;;;;;;6886784;28;20520;-89
2021/06/27 17:04:26;;;;;;;1.05;0.70;;;;;;;;;;6913049;28;20065;-89
2021/06/27 17:07:47;;;;;;;0.60;0.60;;;;;;;;;;6887345;28;20057;-89
2021/06/27 17:11:08;;;;;;;0.73;0.70;;;;;;;;;;6889374;28;20160;-89
2021/06/27 17:14:33;;;;;;;0.65;0.65;;;;;;;;;;6898185;28;20471;-89
2021/06/27 17:17:53;;;;;;;1.85;0.50;;;;;;;;;;6897453;28;20050;-89
2021/06/27 17:21:14;;;;;;;0.60;0.60;;;;;;;;;;6890213;28;20066;-89
2021/06/27 17:24:35;;;;;;;0.60;0.60;;;;;;;;;;6893166;28;20046;-89
2021/06/27 17:27:57;;;;;;;0.75;0.75;;;;;;;;;;6900864;28;20046;-89
2021/06/27 17:31:18;;;;;;;0.60;0.60;;;;;;;;;;6906783;28;20046;-89
2021/06/27 17:34:38;;;;;;;0.73;0.70;;;;;;;;;;6886196;28;20134;-89
2021/06/27 17:38:00;;;;;;;1.15;0.80;;;;;;;;;;6892093;28;20058;-89
2021/06/27 17:41:21;;;;;;;0.75;0.75;;;;;;;;;;6902413;28;20054;-86
2021/06/27 17:44:41;;;;;;;0.88;0.70;;;;;;;;;;6885212;28;20081;-89
2021/06/27 17:48:03;;;;;;;0.77;0.70;;;;;;;;;;6893783;28;20038;-89
2021/06/27 17:51:23;;;;;;;0.70;0.70;;;;;;;;;;6885331;28;20057;-89
2021/06/27 17:54:44;;;;;;;0.85;0.85;;;;;;;;;;6885864;28;20047;-88
2021/06/27 17:58:05;;;;;;;0.65;0.65;;;;;;;;;;6909503;28;20042;-88
2021/06/27 18:01:25;;;;;;;1.23;0.70;;;;;;;;;;6896483;28;20053;-88
2021/06/27 18:04:46;;;;;;;1.13;0.80;;;;;;;;;;6893663;28;20049;-88
2021/06/27 18:08:06;;;;;;;0.80;0.70;;;;;;;;;;6909964;28;20050;-88
2021/06/27 18:11:27;;;;;;;0.70;0.70;;;;;;;;;;6899971;28;20049;-88
2021/06/27 18:14:47;;;;;;;0.63;0.63;;;;;;;;;;6911614;28;20546;-89
2021/06/27 18:18:08;;;;;;;0.77;0.73;;;;;;;;;;6904730;28;20065;-87
2021/06/27 18:21:28;;;;;;;0.60;0.60;;;;;;;;;;6894837;28;20050;-88
2021/06/27 18:24:48;;;;;;;0.77;0.77;;;;;;;;;;6906962;28;20492;-88
2021/06/27 18:28:09;;;;;;;0.80;0.70;;;;;;;;;;6899375;28;20133;-88
2021/06/27 18:31:30;;;;;;;0.80;0.80;;;;;;;;;;6903051;28;20081;-89
2021/06/27 18:34:51;;;;;;;0.65;0.65;;;;;;;;;;6888795;28;20050;-89
2021/06/27 18:38:12;;;;;;;0.50;0.50;;;;;;;;;;6890758;28;20083;-88
2021/06/27 18:41:33;;;;;;;1.38;0.90;;;;;;;;;;6891455;28;20039;-89
2021/06/27 18:44:53;;;;;;;0.60;0.60;;;;;;;;;;6902981;28;20396;-88
2021/06/27 18:48:14;;;;;;;0.90;0.90;;;;;;;;;;6890790;28;20514;-89
2021/06/27 18:51:34;;;;;;;0.70;0.70;;;;;;;;;;6906324;28;20388;-88
2021/06/27 18:54:55;;;;;;;1.75;0.82;;;;;;;;;;6898859;28;20128;-89
2021/06/27 18:58:18;;;;;;;0.70;0.70;;;;;;;;;;6898234;28;20046;-88
2021/06/27 19:01:39;;;;;;;0.60;0.60;;;;;;;;;;6893436;28;20969;-88
2021/06/27 19:05:00;;;;;;;0.60;0.60;;;;;;;;;;6890871;28;20039;-87
2021/06/27 19:08:20;;;;;;;0.75;0.75;;;;;;;;;;6891657;28;20053;-87
2021/06/27 19:11:41;;;;;;;1.17;0.88;;;;;;;;;;6897955;28;20046;-87
2021/06/27 19:15:03;;;;;;;1.20;0.75;;;;;;;;;;6891618;28;20042;-87
2021/06/27 19:18:24;;;;;;;1.55;0.70;;;;;;;;;;6903649;28;20104;-87
2021/06/27 19:21:44;;;;;;;0.63;0.50;;;;;;;;;;6914443;28;20050;-87
2021/06/27 19:25:08;;;;;;;0.70;0.68;;;;;;;;;;6910681;28;20064;-88
2021/06/27 19:28:28;;;;;;;0.70;0.60;;;;;;;;;;6911685;28;20103;-89
2021/06/27 19:31:49;;;;;;;0.70;0.70;;;;;;;;;;6891086;28;20039;-88
2021/06/27 19:35:10;;;;;;;0.63;0.63;;;;;;;;;;6900837;28;20133;-88
2021/06/27 19:38:31;;;;;;;1.27;0.77;;;;;;;;;;6911390;28;20057;-86
2021/06/27 19:41:51;;;;;;;1.05;0.80;;;;;;;;;;6915074;28;20046;-88
2021/06/27 19:45:12;;;;;;;25.23;2.33;;;;;;;;;;6907117;28;20053;-89
2021/06/27 19:48:33;;;;;;;4.15;0.70;;;;;;;;;;6910475;28;20129;-87
2021/06/27 19:51:54;;;;;;;2.97;0.70;;;;;;;;;;6909692;28;20050;-87
2021/06/27 19:55:14;;;;;;;7.32;1.00;;;;;;;;;;6915005;28;20476;-87
2021/06/27 19:58:35;;;;;;;5.07;0.93;;;;;;;;;;6904088;28;20553;-85
2021/06/27 20:01:56;;;;;;;1.35;0.75;;;;;;;;;;6882881;28;20049;-87
2021/06/27 20:05:18;;;;;;;1.00;0.90;;;;;;;;;;6907208;28;20074;-87
2021/06/27 20:08:38;;;;;;;3.53;0.85;;;;;;;;;;6893585;28;20468;-86
2021/06/27 20:12:09;;;;;;;0.80;0.80;;;;;;;;;;6900060;28;20483;-87
2021/06/27 20:15:30;;;;;;;1.75;0.80;;;;;;;;;;6897519;28;20050;-87